Vientiane, Lao Peoples Republic

09:02 PM ICT del 02 Settembre 2014 (GMT +0700)
Wattay International | Change Station
CLOSE
Current Station
Aeroporto
Location: Vientiane,
Altitudine: 561 ft
Stazioni meteo nelle vicinanze

Alt. 561 ft 17.95 °N, 102.57 °E | Updated 32 minutes ago

Mostly Cloudy
Molto nuvoloso
79 °F
Sembra 79 °F
N
5
Vento Variabile Vento da Est

Oggi
Massima -- | Minima -- °F
--% Possibilità di precip.
Ieri
Massima -- | Minima -- °F
Precip. -- in
5:55 AM 6:23 PM
Primo quarto, 51% visible
Pressione 29.74 in
Visibilità 3.1 miglia
Nuvole Molto nuvoloso 4000 ft
Punto di rugiada 75 °F
Umidità 89%
Piovosità 0.00 in
Spessore del manto nevoso Non disponibile.
Raggi UV 0 fuori da 12
Polline Non disponibile.
Qualità dell'aria Non disponibile.
Flu Activity Non disponibile.
METAR VLVT 021330Z 09004KT 5000 BR BKN040 26/24 Q1007 NOSIG

More Conditions Fewer Conditions

Pressione 29.74 in
Visibilità 3.1 miglia
Nuvole Molto nuvoloso 4000 ft
Punto di rugiada 75 °F
Umidità 89%
Piovosità 0.00 in
Spessore del manto nevoso Non disponibile.
Raggi UV 0 fuori da 12
Polline Non disponibile.
Qualità dell'aria Non disponibile.
Flu Activity Non disponibile.
METAR VLVT 021330Z 09004KT 5000 BR BKN040 26/24 Q1007 NOSIG

More Conditions Fewer Conditions

10-Day Weather Forecast

Almanac

Astronomia

Sep. 02, 2014 Alba Tramonto
Ora attuale 05:55 ICT 18:23 ICT
Crepuscolo civile 05:33 ICT 18:45 ICT
Crepuscolo nautico 05:07 ICT 19:10 ICT
Crepuscolo astronomico 04:41 ICT 19:36 ICT
Luna 12:10 ICT 23:46 ICT
Estensione della luce visibile 13h 11m
Lunghezza del giorno
12h 27m
Tomorrow will be 0m 59s shorter.
Primo quarto, 51% of the Moon is Illuminated
Oggi
Primo quarto
Set 8
Luna piena
Set 15
Ultimo quarto
Set 24
Nuovo
Ott 1
Primo quarto

Minime e massime di ieri

Massime Regione Minime Regione

Community

WunderPhotos

Upload Photos

1,749,670 foto caricate!

WunderBlogs® & News

Nearby

Qualità dell'aria

Not available.

Profondità neve

Not available.

Attività sismica

Città  Distanza Mag. Data & Ora
Non sono state riportate attività sismiche nelle vicinanze.
Minimo Magnitudo Mostrato è 2.5.

Temperature delle acque costiere

Località Temperatura
Nessun dato dalle stazioni

Stazioni meteo nelle vicinanze